createdAt,value
2018-07-27T09:16:07.972Z,1011.20
2018-07-27T09:17:08.133Z,1011.11
2018-07-27T09:27:07.050Z,1011.08
2018-07-27T09:28:06.959Z,1011.12
2018-07-27T09:33:06.560Z,1011.07
2018-07-27T09:34:06.534Z,1011.09
2018-07-27T09:35:06.395Z,1011.11
2018-07-27T09:36:06.308Z,1011.13
2018-07-27T09:37:06.220Z,1011.11
2018-07-27T09:38:06.140Z,1010.87
2018-07-27T09:39:06.062Z,1010.87
2018-07-27T09:46:05.486Z,1011.02
2018-07-27T09:47:05.396Z,1011.03
2018-07-27T09:48:05.316Z,1010.93
2018-07-27T09:49:05.238Z,1011.04
2018-07-27T09:50:05.162Z,1011.09
2018-07-27T09:51:05.072Z,1010.92
2018-07-27T09:52:04.993Z,1010.99
2018-07-27T09:53:04.915Z,1010.98
2018-07-27T09:54:04.822Z,1011.01
2018-07-27T09:55:04.743Z,1011.04
2018-07-27T09:56:04.665Z,1011.00
2018-07-27T09:57:04.587Z,1011.08
2018-07-27T09:58:04.499Z,1010.95
2018-07-27T09:59:04.420Z,1010.97
2018-07-27T10:00:04.342Z,1010.92
2018-07-27T10:01:04.264Z,1011.03
2018-07-27T10:02:04.172Z,1010.85
2018-07-27T10:03:04.091Z,1010.91
2018-07-27T10:04:04.014Z,1010.90
2018-07-27T10:05:03.923Z,1010.85
2018-07-27T10:06:03.847Z,1010.89
2018-07-27T10:07:04.069Z,1010.92
2018-07-27T10:08:03.690Z,1010.94
2018-07-27T10:09:03.613Z,1010.93
2018-07-27T10:10:03.519Z,1010.85
2018-07-27T10:11:03.440Z,1010.89
2018-07-27T10:12:03.363Z,1010.91
2018-07-27T10:13:03.283Z,1010.93
2018-07-27T10:14:03.206Z,1010.91
2018-07-27T10:15:03.115Z,1010.86
2018-07-27T10:16:03.036Z,1010.80
2018-07-27T10:17:02.959Z,1010.88
2018-07-27T10:18:02.882Z,1010.84
2018-07-27T10:19:02.804Z,1010.84
2018-07-27T10:20:02.727Z,1010.86
2018-07-27T10:21:02.636Z,1010.78
2018-07-27T10:22:02.559Z,1010.80
2018-07-27T10:23:02.475Z,1010.80
2018-07-27T10:24:02.421Z,1010.87
2018-07-27T10:25:02.323Z,1010.81
2018-07-27T10:26:02.242Z,1010.78
2018-07-27T10:27:02.164Z,1010.75
2018-07-27T10:28:02.074Z,1010.56
2018-07-27T10:29:01.998Z,1010.52
2018-07-27T10:33:01.683Z,1010.67
2018-07-27T10:34:01.602Z,1010.76
2018-07-27T10:35:01.511Z,1010.69
2018-07-27T10:36:01.433Z,1010.70
2018-07-27T10:37:01.353Z,1010.66
2018-07-27T10:38:01.278Z,1010.63
2018-07-27T10:39:01.200Z,1010.61
2018-07-27T10:40:01.123Z,1010.60
2018-07-27T10:41:01.042Z,1010.61
2018-07-27T10:42:00.962Z,1010.61
2018-07-27T10:43:00.898Z,1010.59
2018-07-27T10:44:00.794Z,1010.62
2018-07-27T10:45:00.727Z,1010.63
2018-07-27T10:46:00.649Z,1010.62
2018-07-27T10:47:00.570Z,1010.43
2018-07-27T10:48:00.491Z,1010.51
2018-07-27T10:49:00.414Z,1010.45
2018-07-27T10:50:00.337Z,1010.42
2018-07-27T10:51:00.259Z,1010.63
2018-07-27T10:52:00.194Z,1010.66
2018-07-27T10:53:00.107Z,1010.57
2018-07-27T10:54:00.025Z,1010.58
2018-07-27T10:54:59.944Z,1010.61
2018-07-27T10:55:59.854Z,1010.57
2018-07-27T10:56:59.776Z,1010.61
2018-07-27T10:57:59.700Z,1010.55
2018-07-27T10:58:59.621Z,1010.46
2018-07-27T10:59:59.554Z,1010.44
2018-07-27T11:00:59.465Z,1010.48
2018-07-27T11:01:59.387Z,1010.52
2018-07-27T11:02:59.308Z,1010.48
2018-07-27T11:03:59.230Z,1010.46
2018-07-27T11:04:59.151Z,1010.46
2018-07-27T11:05:59.071Z,1010.37
2018-07-27T11:06:58.993Z,1010.42
2018-07-27T11:07:58.914Z,1010.42
2018-07-27T11:08:58.836Z,1010.37
2018-07-27T11:09:58.761Z,1010.33
2018-07-27T11:10:58.682Z,1010.30
2018-07-27T11:11:58.603Z,1010.30
2018-07-27T11:12:58.528Z,1010.29
2018-07-27T11:13:58.452Z,1010.23
2018-07-27T11:14:58.368Z,1010.25
2018-07-27T11:15:58.288Z,1010.23
2018-07-27T11:16:58.210Z,1010.21
2018-07-27T11:17:58.132Z,1010.20
2018-07-27T11:18:58.054Z,1010.17
2018-07-27T11:19:57.975Z,1010.17
2018-07-27T11:20:57.896Z,1010.08
2018-07-27T11:21:58.096Z,1010.04
